createdAt,value
2023-01-13T00:00:01.659Z,11.50
2023-01-13T00:02:35.586Z,9.20
2023-01-13T00:05:09.956Z,8.40
2023-01-13T00:07:43.542Z,9.00
2023-01-13T00:10:16.064Z,9.90
2023-01-13T00:12:48.355Z,10.10
2023-01-13T00:15:20.779Z,9.90
2023-01-13T00:17:53.178Z,12.30
2023-01-13T00:20:25.576Z,12.00
2023-01-13T00:22:59.008Z,11.30
2023-01-13T00:25:31.471Z,10.30
2023-01-13T00:28:03.848Z,9.70
2023-01-13T00:30:38.582Z,11.90
2023-01-13T00:33:11.231Z,12.40
2023-01-13T00:35:43.757Z,9.20
2023-01-13T00:38:16.266Z,10.10
2023-01-13T00:40:58.411Z,7.30
2023-01-13T00:43:32.793Z,7.70
2023-01-13T00:46:06.327Z,11.30
2023-01-13T00:48:39.343Z,10.20
2023-01-13T00:51:14.999Z,7.80
2023-01-13T00:53:49.570Z,9.20
2023-01-13T00:56:40.801Z,8.20
2023-01-13T00:59:15.232Z,8.10
2023-01-13T01:01:47.770Z,7.30
2023-01-13T01:04:20.411Z,6.90
2023-01-13T01:06:53.397Z,8.30
2023-01-13T01:09:32.831Z,10.00
2023-01-13T01:12:05.873Z,11.70
2023-01-13T01:14:38.383Z,11.30
2023-01-13T01:17:10.803Z,7.10
2023-01-13T01:19:43.344Z,9.70
2023-01-13T01:22:15.794Z,8.60
2023-01-13T01:24:50.146Z,8.60
2023-01-13T01:27:22.648Z,9.10
2023-01-13T01:29:55.174Z,7.60
2023-01-13T01:32:27.629Z,6.80
2023-01-13T01:35:00.227Z,8.40
2023-01-13T01:37:32.605Z,5.80
2023-01-13T01:40:05.231Z,7.30
2023-01-13T01:42:55.252Z,7.30
2023-01-13T01:45:30.739Z,8.90
2023-01-13T01:48:05.783Z,7.60
2023-01-13T01:50:40.075Z,8.00
2023-01-13T01:53:17.585Z,6.60
2023-01-13T01:55:50.113Z,7.10
2023-01-13T01:58:28.326Z,6.80
2023-01-13T02:01:01.227Z,8.30
2023-01-13T02:03:34.528Z,6.50
2023-01-13T02:06:09.613Z,6.70
2023-01-13T02:11:49.232Z,5.40
2023-01-13T02:14:23.416Z,5.80
2023-01-13T02:17:09.312Z,6.30
2023-01-13T02:20:09.714Z,6.90
2023-01-13T02:22:57.350Z,9.50
2023-01-13T02:25:45.881Z,6.80
2023-01-13T02:29:06.068Z,6.80
2023-01-13T02:31:44.183Z,8.40
2023-01-13T02:34:21.080Z,7.10
2023-01-13T02:36:59.570Z,7.20
2023-01-13T02:39:37.549Z,8.30
2023-01-13T02:42:32.760Z,6.60
2023-01-13T02:45:10.802Z,7.80
2023-01-13T02:47:48.000Z,8.20
2023-01-13T02:50:23.499Z,8.50
2023-01-13T02:52:59.915Z,8.50
2023-01-13T02:55:37.182Z,8.20
2023-01-13T02:58:14.620Z,9.10
2023-01-13T03:00:49.310Z,8.40
2023-01-13T03:03:21.762Z,9.00
2023-01-13T03:05:57.389Z,8.80
2023-01-13T03:08:46.812Z,7.90
2023-01-13T03:11:21.413Z,7.10
2023-01-13T03:14:18.155Z,8.20
2023-01-13T03:17:04.084Z,7.30
2023-01-13T03:19:43.947Z,6.80
2023-01-13T03:22:24.216Z,8.10
2023-01-13T03:25:02.316Z,7.70
2023-01-13T03:27:43.782Z,7.30
2023-01-13T03:30:21.553Z,7.60
2023-01-13T03:32:59.682Z,9.00
2023-01-13T03:35:36.376Z,7.20
2023-01-13T03:38:12.107Z,8.70
2023-01-13T03:40:48.916Z,8.50
2023-01-13T03:43:45.321Z,7.40
2023-01-13T03:46:24.740Z,8.20
2023-01-13T03:49:00.672Z,7.80
2023-01-13T03:51:37.133Z,7.40
2023-01-13T03:54:13.190Z,7.40
2023-01-13T03:56:48.535Z,7.20
2023-01-13T03:59:24.226Z,7.70
2023-01-13T04:02:02.830Z,8.80
2023-01-13T04:04:42.506Z,8.00
2023-01-13T04:07:21.936Z,8.40
2023-01-13T04:09:57.022Z,6.70
2023-01-13T04:15:25.289Z,7.80
2023-01-13T04:18:09.969Z,7.40
2023-01-13T04:20:43.476Z,7.40
2023-01-13T04:23:16.801Z,7.40
2023-01-13T04:25:49.972Z,7.20
2023-01-13T04:28:22.830Z,6.50
2023-01-13T04:30:55.386Z,7.30
2023-01-13T04:33:27.704Z,7.50
2023-01-13T04:36:00.034Z,7.70
2023-01-13T04:38:32.403Z,6.30
2023-01-13T04:41:04.825Z,7.60
2023-01-13T04:43:37.195Z,6.60
2023-01-13T04:46:09.715Z,6.30
2023-01-13T04:48:42.097Z,6.90
2023-01-13T04:51:14.581Z,6.10
2023-01-13T04:53:47.125Z,5.70
2023-01-13T04:56:19.523Z,5.60
2023-01-13T04:58:51.898Z,6.60
2023-01-13T05:01:24.505Z,7.90
2023-01-13T05:03:57.077Z,5.90
2023-01-13T05:06:29.430Z,5.70
2023-01-13T05:09:01.754Z,6.40
2023-01-13T05:11:51.940Z,6.10
2023-01-13T05:14:42.359Z,5.70
2023-01-13T05:17:21.775Z,6.60
2023-01-13T05:19:54.375Z,5.20
2023-01-13T05:22:44.569Z,6.00
2023-01-13T05:25:23.210Z,5.20
2023-01-13T05:27:57.382Z,6.70
2023-01-13T05:30:34.590Z,7.50
2023-01-13T05:33:07.172Z,5.90
2023-01-13T05:35:40.844Z,6.00
2023-01-13T05:38:14.144Z,5.00
2023-01-13T05:41:04.097Z,4.90
2023-01-13T05:43:36.475Z,6.30
2023-01-13T05:46:12.011Z,5.90
2023-01-13T05:48:45.655Z,6.30
2023-01-13T05:51:19.272Z,6.70
2023-01-13T05:53:51.645Z,5.40
2023-01-13T05:56:23.972Z,6.20
2023-01-13T05:58:56.530Z,7.70
2023-01-13T06:01:28.940Z,20.30
2023-01-13T06:04:01.439Z,14.20
2023-01-13T06:06:33.948Z,24.00
2023-01-13T06:09:06.516Z,10.20
2023-01-13T06:11:38.849Z,11.00
2023-01-13T06:14:11.407Z,8.40
2023-01-13T06:16:45.566Z,11.50
2023-01-13T06:19:18.067Z,8.90
2023-01-13T06:21:50.624Z,6.10
2023-01-13T06:24:23.227Z,5.20
2023-01-13T06:26:55.701Z,6.90
2023-01-13T06:29:28.044Z,4.80
2023-01-13T06:32:02.829Z,6.90
2023-01-13T06:34:36.411Z,6.20
2023-01-13T06:37:08.937Z,21.30
2023-01-13T06:39:42.227Z,5.60
2023-01-13T06:42:32.464Z,5.80
2023-01-13T06:45:05.359Z,4.90
2023-01-13T06:47:37.699Z,6.60
2023-01-13T06:50:12.463Z,73.60
2023-01-13T06:52:45.006Z,24.20
2023-01-13T06:55:17.584Z,36.30
2023-01-13T06:58:00.198Z,19.30
2023-01-13T07:00:36.567Z,17.20
2023-01-13T07:03:11.108Z,18.50
2023-01-13T07:05:52.449Z,17.30
2023-01-13T07:08:25.264Z,14.20
2023-01-13T07:10:57.814Z,19.60
2023-01-13T07:13:47.953Z,9.90
2023-01-13T07:16:20.345Z,10.80
2023-01-13T07:18:52.841Z,14.20
2023-01-13T07:21:25.163Z,13.90
2023-01-13T07:23:57.639Z,16.30
2023-01-13T07:26:30.145Z,18.60
2023-01-13T07:29:02.488Z,19.70
2023-01-13T07:31:35.104Z,10.60
2023-01-13T07:34:07.619Z,18.40
2023-01-13T07:36:40.511Z,25.00
2023-01-13T07:39:13.004Z,24.70
2023-01-13T07:42:03.137Z,16.80
2023-01-13T07:44:35.517Z,17.50
2023-01-13T07:47:10.510Z,17.20
2023-01-13T07:49:42.952Z,13.70
2023-01-13T07:52:15.400Z,18.20
2023-01-13T07:54:47.851Z,33.80
2023-01-13T07:57:20.659Z,18.60
2023-01-13T07:59:52.987Z,18.70
2023-01-13T08:02:25.743Z,11.80
2023-01-13T08:04:58.426Z,9.60
2023-01-13T08:07:30.921Z,11.20
2023-01-13T08:10:04.783Z,16.90
2023-01-13T08:12:56.951Z,9.60
2023-01-13T08:15:29.928Z,9.80
2023-01-13T08:18:02.452Z,9.90
2023-01-13T08:20:34.932Z,10.10
2023-01-13T08:23:07.706Z,10.50
2023-01-13T08:25:40.188Z,12.70
2023-01-13T08:28:12.601Z,10.60
2023-01-13T08:30:45.380Z,18.40
2023-01-13T08:33:18.176Z,9.60
2023-01-13T08:35:52.802Z,10.20
2023-01-13T08:38:26.384Z,11.90
2023-01-13T08:40:58.890Z,11.70
2023-01-13T08:43:31.290Z,11.80
2023-01-13T08:46:05.588Z,17.50
2023-01-13T08:48:38.379Z,13.60
2023-01-13T08:51:12.727Z,11.80
2023-01-13T08:53:45.070Z,8.60
2023-01-13T08:56:17.523Z,9.30
2023-01-13T08:58:49.927Z,8.40
2023-01-13T09:01:24.481Z,8.90
2023-01-13T09:03:57.439Z,8.80
2023-01-13T09:06:29.987Z,7.70
2023-01-13T09:09:02.634Z,37.80
2023-01-13T09:11:56.183Z,8.20
2023-01-13T09:14:33.315Z,9.10
2023-01-13T09:17:06.125Z,8.10
2023-01-13T09:19:38.627Z,7.90
2023-01-13T09:22:15.149Z,10.90
2023-01-13T09:24:47.960Z,13.50
2023-01-13T09:27:20.302Z,9.60
2023-01-13T09:29:52.709Z,12.00
2023-01-13T09:32:25.135Z,8.70
2023-01-13T09:35:04.007Z,8.70
2023-01-13T09:37:38.400Z,9.90
2023-01-13T09:40:17.685Z,14.40
2023-01-13T09:43:13.271Z,16.50
2023-01-13T09:45:51.610Z,9.50
2023-01-13T09:48:30.821Z,12.50
2023-01-13T09:51:14.767Z,12.40
2023-01-13T09:53:55.934Z,15.40
2023-01-13T09:56:28.853Z,16.10
2023-01-13T09:59:01.562Z,14.90
2023-01-13T10:01:42.387Z,13.70
2023-01-13T10:04:16.489Z,17.80
2023-01-13T10:06:56.413Z,17.20
2023-01-13T10:09:35.321Z,16.70
2023-01-13T10:12:33.236Z,14.20
2023-01-13T10:15:06.383Z,13.00
2023-01-13T10:17:46.104Z,16.10
2023-01-13T10:20:24.904Z,14.70
2023-01-13T10:23:09.776Z,24.90
2023-01-13T10:25:55.695Z,20.10
2023-01-13T10:28:28.109Z,18.10
2023-01-13T10:31:01.128Z,18.60
2023-01-13T10:33:33.607Z,54.00
2023-01-13T10:36:14.253Z,42.00
2023-01-13T10:38:48.219Z,30.40
2023-01-13T10:41:27.907Z,28.60
2023-01-13T10:44:08.452Z,45.80
2023-01-13T10:46:56.030Z,30.60
2023-01-13T10:49:39.521Z,26.00
2023-01-13T10:52:29.729Z,47.10
2023-01-13T10:55:02.316Z,27.30
2023-01-13T10:57:38.554Z,20.50
2023-01-13T11:00:29.715Z,25.30
2023-01-13T11:03:20.780Z,22.50
2023-01-13T11:05:56.102Z,13.30
2023-01-13T11:08:30.623Z,12.30
2023-01-13T11:11:03.066Z,16.70
2023-01-13T11:14:01.518Z,13.00
2023-01-13T11:16:52.935Z,14.30
2023-01-13T11:19:28.907Z,13.40
2023-01-13T11:22:07.043Z,12.20
2023-01-13T11:24:43.636Z,24.90
2023-01-13T11:27:21.516Z,88.60
2023-01-13T11:30:09.741Z,42.60
2023-01-13T11:32:51.281Z,29.70
2023-01-13T11:35:25.392Z,43.60
2023-01-13T11:38:03.185Z,30.20
2023-01-13T11:40:38.778Z,26.40
2023-01-13T11:43:19.258Z,23.90
2023-01-13T11:45:57.173Z,19.60
2023-01-13T11:48:33.569Z,22.40
2023-01-13T11:51:19.326Z,26.50
2023-01-13T11:54:07.276Z,31.40
2023-01-13T11:57:02.425Z,99.20
2023-01-13T11:59:55.024Z,41.40
2023-01-13T12:02:46.358Z,98.70
2023-01-13T12:05:30.537Z,59.40
2023-01-13T12:08:18.401Z,24.60
2023-01-13T12:11:02.619Z,36.80
2023-01-13T12:13:49.158Z,43.50
2023-01-13T12:16:30.495Z,34.20
2023-01-13T12:19:24.566Z,26.20
2023-01-13T12:22:17.498Z,25.20
2023-01-13T12:24:54.536Z,18.60
2023-01-13T12:27:34.029Z,39.40
2023-01-13T12:30:21.862Z,28.10
2023-01-13T12:32:58.714Z,29.80
2023-01-13T12:35:41.145Z,25.90
2023-01-13T12:38:21.320Z,19.40
2023-01-13T12:41:03.913Z,26.40
2023-01-13T12:43:56.182Z,27.90
2023-01-13T12:46:57.185Z,20.50
2023-01-13T12:49:34.941Z,15.70
2023-01-13T12:52:20.070Z,18.70
2023-01-13T12:55:17.045Z,20.00
2023-01-13T12:58:18.626Z,16.60
2023-01-13T13:01:01.834Z,18.10
2023-01-13T13:03:36.924Z,13.40
2023-01-13T13:09:03.741Z,12.80
2023-01-13T13:12:01.540Z,12.30
2023-01-13T13:15:20.262Z,11.60
2023-01-13T13:18:21.770Z,17.40
2023-01-13T13:21:03.631Z,14.10
2023-01-13T13:24:03.173Z,11.30
2023-01-13T13:26:46.870Z,15.30
2023-01-13T13:29:41.188Z,17.50
2023-01-13T13:32:53.131Z,12.00
2023-01-13T13:35:40.316Z,22.70
2023-01-13T13:38:43.661Z,24.10
2023-01-13T13:41:37.416Z,15.00
2023-01-13T13:44:35.877Z,12.30
2023-01-13T13:47:08.915Z,12.80
2023-01-13T13:49:45.563Z,13.00
2023-01-13T13:52:23.086Z,13.90
2023-01-13T13:54:59.323Z,10.90
2023-01-13T13:57:39.637Z,8.80
2023-01-13T14:00:24.777Z,15.30
2023-01-13T14:03:01.229Z,14.00
2023-01-13T14:05:35.569Z,16.40
2023-01-13T14:08:17.045Z,13.00
2023-01-13T14:10:49.633Z,11.70
2023-01-13T14:13:25.212Z,14.00
2023-01-13T14:16:00.927Z,14.20
2023-01-13T14:18:41.449Z,16.70
2023-01-13T14:21:23.566Z,19.40
2023-01-13T14:23:58.811Z,15.60
2023-01-13T14:26:33.433Z,18.30
2023-01-13T14:29:06.431Z,19.10
2023-01-13T14:31:41.455Z,17.00
2023-01-13T14:34:32.614Z,16.40
2023-01-13T14:37:22.620Z,20.70
2023-01-13T14:39:55.603Z,38.10
2023-01-13T14:42:29.865Z,51.30
2023-01-13T14:45:02.472Z,28.40
2023-01-13T14:47:35.662Z,45.10
2023-01-13T14:50:18.817Z,101.20
2023-01-13T14:52:54.897Z,89.70
2023-01-13T14:58:26.882Z,42.80
2023-01-13T15:01:30.544Z,62.10
2023-01-13T15:04:28.305Z,32.90
2023-01-13T15:07:01.684Z,19.40
2023-01-13T15:09:42.888Z,15.30
2023-01-13T15:12:32.405Z,18.80
2023-01-13T15:15:06.620Z,16.80
2023-01-13T15:17:40.196Z,19.60
2023-01-13T15:20:19.280Z,20.30
2023-01-13T15:22:52.821Z,29.10
2023-01-13T15:25:25.562Z,30.60
2023-01-13T15:27:57.936Z,32.30
2023-01-13T15:30:30.459Z,25.40
2023-01-13T15:33:02.861Z,44.70
2023-01-13T15:35:38.125Z,72.20
2023-01-13T15:38:14.211Z,50.50
2023-01-13T15:40:46.667Z,47.30
2023-01-13T15:43:38.265Z,52.10
2023-01-13T15:46:34.052Z,37.70
2023-01-13T15:49:12.789Z,38.30
2023-01-13T15:51:45.130Z,43.70
2023-01-13T15:54:19.978Z,35.00
2023-01-13T15:56:53.193Z,29.50
2023-01-13T15:59:28.283Z,28.50
2023-01-13T16:02:00.692Z,58.60
2023-01-13T16:04:33.672Z,72.20
2023-01-13T16:07:12.984Z,26.70
2023-01-13T16:09:46.232Z,37.00
2023-01-13T16:12:18.580Z,25.70
2023-01-13T16:14:50.957Z,51.50
2023-01-13T16:17:25.357Z,87.70
2023-01-13T16:19:58.294Z,84.00
2023-01-13T16:22:30.822Z,84.80
2023-01-13T16:25:03.201Z,30.80
2023-01-13T16:27:35.599Z,33.90
2023-01-13T16:30:14.943Z,45.10
2023-01-13T16:32:47.763Z,34.20
2023-01-13T16:35:20.505Z,28.80
2023-01-13T16:37:54.155Z,29.80
2023-01-13T16:40:31.269Z,32.10
2023-01-13T16:43:04.848Z,23.60
2023-01-13T16:45:37.649Z,17.10
2023-01-13T16:48:18.406Z,16.50
2023-01-13T16:50:51.063Z,16.70
2023-01-13T16:53:23.666Z,18.20
2023-01-13T16:55:56.066Z,18.10
2023-01-13T16:58:28.446Z,20.30
2023-01-13T17:01:00.797Z,19.60
2023-01-13T17:03:36.088Z,16.00
2023-01-13T17:06:11.008Z,24.50
2023-01-13T17:08:43.343Z,21.50
2023-01-13T17:11:15.905Z,19.50
2023-01-13T17:13:48.373Z,21.50
2023-01-13T17:16:26.378Z,33.40
2023-01-13T17:18:58.906Z,42.80
2023-01-13T17:21:31.226Z,40.40
2023-01-13T17:24:05.808Z,33.10
2023-01-13T17:26:42.249Z,25.70
2023-01-13T17:29:16.446Z,31.10
2023-01-13T17:31:49.277Z,18.70
2023-01-13T17:34:22.623Z,19.50
2023-01-13T17:36:55.194Z,19.00
2023-01-13T17:39:30.794Z,20.90
2023-01-13T17:42:03.146Z,16.70
2023-01-13T17:44:35.658Z,26.10
2023-01-13T17:47:08.618Z,23.40
2023-01-13T17:49:41.000Z,19.50
2023-01-13T17:52:13.424Z,27.90
2023-01-13T17:54:45.801Z,29.10
2023-01-13T17:57:18.322Z,18.80
2023-01-13T17:59:50.719Z,28.20
2023-01-13T18:02:23.185Z,22.90
2023-01-13T18:04:55.670Z,22.00
2023-01-13T18:07:28.016Z,24.10
2023-01-13T18:10:00.329Z,24.30
2023-01-13T18:12:34.909Z,26.40
2023-01-13T18:15:08.834Z,36.50
2023-01-13T18:17:41.319Z,51.20
2023-01-13T18:20:34.483Z,36.00
2023-01-13T18:23:24.775Z,33.00
2023-01-13T18:26:14.965Z,34.50
2023-01-13T18:28:47.520Z,33.20
2023-01-13T18:31:19.858Z,37.20
2023-01-13T18:33:52.830Z,36.60
2023-01-13T18:36:25.227Z,36.60
2023-01-13T18:38:58.832Z,36.00
2023-01-13T18:41:48.964Z,49.40
2023-01-13T18:44:21.510Z,50.20
2023-01-13T18:46:54.157Z,41.40
2023-01-13T18:49:26.905Z,31.00
2023-01-13T18:51:59.325Z,24.60
2023-01-13T18:54:31.679Z,32.70
2023-01-13T18:57:04.099Z,48.50
2023-01-13T18:59:36.420Z,46.40
2023-01-13T19:02:14.473Z,43.70
2023-01-13T19:04:47.493Z,46.40
2023-01-13T19:07:24.501Z,25.70
2023-01-13T19:09:59.390Z,28.80
2023-01-13T19:12:31.854Z,40.00
2023-01-13T19:15:05.102Z,51.80
2023-01-13T19:17:37.906Z,253.10
2023-01-13T19:20:14.092Z,245.30
2023-01-13T19:22:53.921Z,42.00
2023-01-13T19:25:27.589Z,50.10
2023-01-13T19:27:59.941Z,61.20
2023-01-13T19:30:32.368Z,42.10
2023-01-13T19:33:04.765Z,35.90
2023-01-13T19:35:39.552Z,25.00
2023-01-13T19:38:12.181Z,27.60
2023-01-13T19:40:44.499Z,23.80
2023-01-13T19:43:34.723Z,26.50
2023-01-13T19:46:07.892Z,71.60
2023-01-13T19:48:43.004Z,63.90
2023-01-13T19:53:47.852Z,26.30
2023-01-13T19:56:20.343Z,29.10
2023-01-13T19:58:52.848Z,34.40
2023-01-13T20:01:31.868Z,41.10
2023-01-13T20:04:06.813Z,30.50
2023-01-13T20:06:39.308Z,35.10
2023-01-13T20:09:12.223Z,33.40
2023-01-13T20:11:45.775Z,29.80
2023-01-13T20:14:18.147Z,26.10
2023-01-13T20:16:51.002Z,23.90
2023-01-13T20:19:23.453Z,17.50
2023-01-13T20:21:55.801Z,16.20
2023-01-13T20:24:28.340Z,22.00
2023-01-13T20:27:01.423Z,19.00
2023-01-13T20:29:34.149Z,13.80
2023-01-13T20:32:06.879Z,15.80
2023-01-13T20:34:39.229Z,20.20
2023-01-13T20:37:11.580Z,28.70
2023-01-13T20:39:45.176Z,27.50
2023-01-13T20:42:44.691Z,17.20
2023-01-13T20:45:20.983Z,16.00
2023-01-13T20:47:54.892Z,14.50
2023-01-13T20:50:27.339Z,13.60
2023-01-13T20:52:59.786Z,12.10
2023-01-13T20:55:32.109Z,17.30
2023-01-13T20:58:04.406Z,14.30
2023-01-13T21:00:36.882Z,13.80
2023-01-13T21:03:09.177Z,15.30
2023-01-13T21:05:41.604Z,14.20
2023-01-13T21:08:14.079Z,15.90
2023-01-13T21:10:46.552Z,17.50
2023-01-13T21:13:36.459Z,24.20
2023-01-13T21:16:12.192Z,35.60
2023-01-13T21:19:02.122Z,28.00
2023-01-13T21:21:34.723Z,30.40
2023-01-13T21:24:07.720Z,33.10
2023-01-13T21:26:40.267Z,21.60
2023-01-13T21:29:12.687Z,15.60
2023-01-13T21:31:45.084Z,18.90
2023-01-13T21:34:17.639Z,16.70
2023-01-13T21:36:50.039Z,21.60
2023-01-13T21:39:22.359Z,19.80
2023-01-13T21:42:12.808Z,19.90
2023-01-13T21:45:03.025Z,18.20
2023-01-13T21:47:52.106Z,18.20
2023-01-13T21:50:26.636Z,18.10
2023-01-13T21:53:00.545Z,18.30
2023-01-13T21:55:33.127Z,20.50
2023-01-13T21:58:12.308Z,13.50
2023-01-13T22:00:46.297Z,16.80
2023-01-13T22:03:21.838Z,14.30
2023-01-13T22:05:57.490Z,15.80
2023-01-13T22:08:30.493Z,24.50
2023-01-13T22:11:04.985Z,17.00
2023-01-13T22:13:55.656Z,13.40
2023-01-13T22:16:28.913Z,21.00
2023-01-13T22:19:01.319Z,14.20
2023-01-13T22:21:34.049Z,18.40
2023-01-13T22:24:07.684Z,15.00
2023-01-13T22:26:40.132Z,14.30
2023-01-13T22:29:12.566Z,13.50
2023-01-13T22:31:45.083Z,21.70
2023-01-13T22:34:17.402Z,17.00
2023-01-13T22:36:49.656Z,36.30
2023-01-13T22:39:22.560Z,33.00
2023-01-13T22:41:55.034Z,28.70
2023-01-13T22:44:27.815Z,15.10
2023-01-13T22:47:00.299Z,20.30
2023-01-13T22:49:32.663Z,10.40
2023-01-13T22:52:05.968Z,14.40
2023-01-13T22:54:38.308Z,13.60
2023-01-13T22:57:11.080Z,13.90
2023-01-13T22:59:43.512Z,14.60
2023-01-13T23:02:15.886Z,26.10
2023-01-13T23:04:48.270Z,12.80
2023-01-13T23:07:20.658Z,10.10
2023-01-13T23:09:52.979Z,12.90
2023-01-13T23:12:25.391Z,13.20
2023-01-13T23:14:57.764Z,13.30
2023-01-13T23:17:30.178Z,13.10
2023-01-13T23:20:02.685Z,14.50
2023-01-13T23:22:38.659Z,16.50
2023-01-13T23:25:13.843Z,22.90
2023-01-13T23:30:17.735Z,16.50
2023-01-13T23:32:50.094Z,20.40
2023-01-13T23:35:22.571Z,10.00
2023-01-13T23:37:54.973Z,17.80
2023-01-13T23:40:27.318Z,12.00
2023-01-13T23:42:59.711Z,12.50
2023-01-13T23:45:32.150Z,43.00
2023-01-13T23:48:04.744Z,16.70
2023-01-13T23:50:37.176Z,69.50
2023-01-13T23:53:09.573Z,155.10
2023-01-13T23:55:42.018Z,330.90
2023-01-13T23:58:14.579Z,125.50
